sensor_id;sensor_type;location;lat;lon;timestamp;P1;durP1;ratioP1;P2;durP2;ratioP2
9420;SDS011;4749;51.398;5.466;2024-01-07T00:01:47;29.27;;;18.47;;
9420;SDS011;4749;51.398;5.466;2024-01-07T00:04:15;27.40;;;18.47;;
9420;SDS011;4749;51.398;5.466;2024-01-07T00:06:43;29.17;;;18.90;;
9420;SDS011;4749;51.398;5.466;2024-01-07T00:09:11;30.53;;;19.20;;
9420;SDS011;4749;51.398;5.466;2024-01-07T00:11:39;27.23;;;18.37;;
9420;SDS011;4749;51.398;5.466;2024-01-07T00:14:07;28.93;;;18.67;;
9420;SDS011;4749;51.398;5.466;2024-01-07T00:16:34;28.83;;;19.23;;
9420;SDS011;4749;51.398;5.466;2024-01-07T00:19:01;27.57;;;17.63;;
9420;SDS011;4749;51.398;5.466;2024-01-07T00:21:29;29.90;;;19.60;;
9420;SDS011;4749;51.398;5.466;2024-01-07T00:23:56;32.33;;;20.47;;
9420;SDS011;4749;51.398;5.466;2024-01-07T00:26:23;32.93;;;20.67;;
9420;SDS011;4749;51.398;5.466;2024-01-07T00:28:50;30.60;;;20.73;;
9420;SDS011;4749;51.398;5.466;2024-01-07T00:31:18;35.07;;;21.87;;
9420;SDS011;4749;51.398;5.466;2024-01-07T00:33:46;33.77;;;21.97;;
9420;SDS011;4749;51.398;5.466;2024-01-07T00:36:13;32.47;;;21.20;;
9420;SDS011;4749;51.398;5.466;2024-01-07T00:38:40;34.97;;;21.97;;
9420;SDS011;4749;51.398;5.466;2024-01-07T00:41:07;32.83;;;21.47;;
9420;SDS011;4749;51.398;5.466;2024-01-07T00:43:34;33.07;;;21.93;;
9420;SDS011;4749;51.398;5.466;2024-01-07T00:46:01;31.63;;;21.17;;
9420;SDS011;4749;51.398;5.466;2024-01-07T00:48:29;32.97;;;21.93;;
9420;SDS011;4749;51.398;5.466;2024-01-07T00:50:56;32.13;;;21.80;;
9420;SDS011;4749;51.398;5.466;2024-01-07T00:53:23;32.03;;;21.67;;
9420;SDS011;4749;51.398;5.466;2024-01-07T00:55:50;32.83;;;22.13;;
9420;SDS011;4749;51.398;5.466;2024-01-07T00:58:18;32.90;;;20.70;;
9420;SDS011;4749;51.398;5.466;2024-01-07T01:00:45;31.97;;;21.70;;
9420;SDS011;4749;51.398;5.466;2024-01-07T01:03:12;33.20;;;21.93;;
9420;SDS011;4749;51.398;5.466;2024-01-07T01:05:40;32.17;;;21.67;;
9420;SDS011;4749;51.398;5.466;2024-01-07T01:08:07;33.17;;;21.43;;
9420;SDS011;4749;51.398;5.466;2024-01-07T01:10:34;35.17;;;22.60;;
9420;SDS011;4749;51.398;5.466;2024-01-07T01:13:01;34.57;;;22.20;;
9420;SDS011;4749;51.398;5.466;2024-01-07T01:15:29;32.80;;;21.67;;
9420;SDS011;4749;51.398;5.466;2024-01-07T01:17:56;32.83;;;22.27;;
9420;SDS011;4749;51.398;5.466;2024-01-07T01:20:24;29.57;;;21.00;;
9420;SDS011;4749;51.398;5.466;2024-01-07T01:22:52;33.37;;;21.73;;
9420;SDS011;4749;51.398;5.466;2024-01-07T01:25:19;31.33;;;20.07;;
9420;SDS011;4749;51.398;5.466;2024-01-07T01:27:47;30.97;;;20.70;;
9420;SDS011;4749;51.398;5.466;2024-01-07T01:30:15;28.10;;;20.03;;
9420;SDS011;4749;51.398;5.466;2024-01-07T01:32:42;28.50;;;20.13;;
9420;SDS011;4749;51.398;5.466;2024-01-07T01:35:10;27.80;;;19.17;;
9420;SDS011;4749;51.398;5.466;2024-01-07T01:37:37;26.57;;;18.73;;
9420;SDS011;4749;51.398;5.466;2024-01-07T01:40:05;29.77;;;20.57;;
9420;SDS011;4749;51.398;5.466;2024-01-07T01:42:33;27.80;;;18.90;;
9420;SDS011;4749;51.398;5.466;2024-01-07T01:45:00;27.97;;;19.97;;
9420;SDS011;4749;51.398;5.466;2024-01-07T01:47:31;31.00;;;20.50;;
9420;SDS011;4749;51.398;5.466;2024-01-07T01:49:58;32.03;;;20.63;;
9420;SDS011;4749;51.398;5.466;2024-01-07T01:52:26;29.47;;;20.30;;
9420;SDS011;4749;51.398;5.466;2024-01-07T01:54:54;29.77;;;20.80;;
9420;SDS011;4749;51.398;5.466;2024-01-07T01:57:21;32.27;;;22.93;;
9420;SDS011;4749;51.398;5.466;2024-01-07T01:59:50;33.00;;;21.30;;
9420;SDS011;4749;51.398;5.466;2024-01-07T02:02:17;33.77;;;21.80;;
9420;SDS011;4749;51.398;5.466;2024-01-07T02:04:44;30.43;;;20.53;;
9420;SDS011;4749;51.398;5.466;2024-01-07T02:07:12;35.73;;;22.43;;
9420;SDS011;4749;51.398;5.466;2024-01-07T02:09:39;34.37;;;22.43;;
9420;SDS011;4749;51.398;5.466;2024-01-07T02:12:06;34.37;;;22.30;;
9420;SDS011;4749;51.398;5.466;2024-01-07T02:14:38;35.83;;;22.83;;
9420;SDS011;4749;51.398;5.466;2024-01-07T02:17:06;36.77;;;23.37;;
9420;SDS011;4749;51.398;5.466;2024-01-07T02:19:33;36.80;;;23.50;;
9420;SDS011;4749;51.398;5.466;2024-01-07T02:22:00;37.53;;;23.57;;
9420;SDS011;4749;51.398;5.466;2024-01-07T02:24:30;36.80;;;23.60;;
9420;SDS011;4749;51.398;5.466;2024-01-07T02:26:57;39.07;;;24.07;;
9420;SDS011;4749;51.398;5.466;2024-01-07T02:29:28;36.77;;;24.30;;
9420;SDS011;4749;51.398;5.466;2024-01-07T02:31:55;40.53;;;25.63;;
9420;SDS011;4749;51.398;5.466;2024-01-07T02:34:23;39.93;;;25.27;;
9420;SDS011;4749;51.398;5.466;2024-01-07T02:36:50;40.07;;;25.30;;
9420;SDS011;4749;51.398;5.466;2024-01-07T02:39:17;40.17;;;24.47;;
9420;SDS011;4749;51.398;5.466;2024-01-07T02:41:44;43.10;;;24.80;;
9420;SDS011;4749;51.398;5.466;2024-01-07T02:44:12;45.03;;;26.87;;
9420;SDS011;4749;51.398;5.466;2024-01-07T02:46:39;43.60;;;27.47;;
9420;SDS011;4749;51.398;5.466;2024-01-07T02:49:06;40.60;;;25.63;;
9420;SDS011;4749;51.398;5.466;2024-01-07T02:51:33;41.87;;;25.57;;
9420;SDS011;4749;51.398;5.466;2024-01-07T02:54:00;38.43;;;24.20;;
9420;SDS011;4749;51.398;5.466;2024-01-07T02:56:28;42.20;;;25.90;;
9420;SDS011;4749;51.398;5.466;2024-01-07T02:58:55;40.50;;;24.77;;
9420;SDS011;4749;51.398;5.466;2024-01-07T03:01:22;42.47;;;25.90;;
9420;SDS011;4749;51.398;5.466;2024-01-07T03:03:50;44.37;;;25.67;;
9420;SDS011;4749;51.398;5.466;2024-01-07T03:06:17;40.53;;;24.40;;
9420;SDS011;4749;51.398;5.466;2024-01-07T03:08:44;44.00;;;26.60;;
9420;SDS011;4749;51.398;5.466;2024-01-07T03:11:11;41.97;;;25.93;;
9420;SDS011;4749;51.398;5.466;2024-01-07T03:13:39;43.20;;;26.10;;
9420;SDS011;4749;51.398;5.466;2024-01-07T03:16:07;43.93;;;26.30;;
9420;SDS011;4749;51.398;5.466;2024-01-07T03:18:34;47.90;;;28.30;;
9420;SDS011;4749;51.398;5.466;2024-01-07T03:21:01;53.97;;;29.43;;
9420;SDS011;4749;51.398;5.466;2024-01-07T03:23:29;47.83;;;28.10;;
9420;SDS011;4749;51.398;5.466;2024-01-07T03:25:57;49.63;;;28.73;;
9420;SDS011;4749;51.398;5.466;2024-01-07T03:28:24;47.47;;;28.20;;
9420;SDS011;4749;51.398;5.466;2024-01-07T03:30:52;54.23;;;27.77;;
9420;SDS011;4749;51.398;5.466;2024-01-07T03:33:19;52.77;;;29.10;;
9420;SDS011;4749;51.398;5.466;2024-01-07T03:35:46;52.07;;;28.30;;
9420;SDS011;4749;51.398;5.466;2024-01-07T03:38:13;55.70;;;30.80;;
9420;SDS011;4749;51.398;5.466;2024-01-07T03:40:40;55.30;;;30.77;;
9420;SDS011;4749;51.398;5.466;2024-01-07T03:43:07;52.53;;;30.17;;
9420;SDS011;4749;51.398;5.466;2024-01-07T03:45:34;53.20;;;29.67;;
9420;SDS011;4749;51.398;5.466;2024-01-07T03:48:03;57.87;;;30.27;;
9420;SDS011;4749;51.398;5.466;2024-01-07T03:50:30;50.83;;;29.30;;
9420;SDS011;4749;51.398;5.466;2024-01-07T03:52:57;52.17;;;28.63;;
9420;SDS011;4749;51.398;5.466;2024-01-07T03:55:24;49.80;;;28.83;;
9420;SDS011;4749;51.398;5.466;2024-01-07T03:57:51;50.50;;;28.07;;
9420;SDS011;4749;51.398;5.466;2024-01-07T04:00:19;47.07;;;27.33;;
9420;SDS011;4749;51.398;5.466;2024-01-07T04:02:46;49.77;;;28.10;;
9420;SDS011;4749;51.398;5.466;2024-01-07T04:05:13;43.73;;;26.07;;
9420;SDS011;4749;51.398;5.466;2024-01-07T04:07:41;46.37;;;26.73;;
9420;SDS011;4749;51.398;5.466;2024-01-07T04:10:08;40.50;;;24.10;;
9420;SDS011;4749;51.398;5.466;2024-01-07T04:12:36;43.07;;;25.83;;
9420;SDS011;4749;51.398;5.466;2024-01-07T04:15:04;39.23;;;23.17;;
9420;SDS011;4749;51.398;5.466;2024-01-07T04:17:31;38.47;;;22.87;;
9420;SDS011;4749;51.398;5.466;2024-01-07T04:19:59;40.20;;;23.80;;
9420;SDS011;4749;51.398;5.466;2024-01-07T04:22:26;37.77;;;21.77;;
9420;SDS011;4749;51.398;5.466;2024-01-07T04:24:53;38.37;;;21.37;;
9420;SDS011;4749;51.398;5.466;2024-01-07T04:27:20;33.47;;;20.53;;
9420;SDS011;4749;51.398;5.466;2024-01-07T04:29:47;31.90;;;20.83;;
9420;SDS011;4749;51.398;5.466;2024-01-07T04:32:14;34.97;;;21.00;;
9420;SDS011;4749;51.398;5.466;2024-01-07T04:34:41;32.60;;;20.80;;
9420;SDS011;4749;51.398;5.466;2024-01-07T04:37:09;35.37;;;20.83;;
9420;SDS011;4749;51.398;5.466;2024-01-07T04:39:37;33.60;;;19.40;;
9420;SDS011;4749;51.398;5.466;2024-01-07T04:42:04;29.43;;;19.80;;
9420;SDS011;4749;51.398;5.466;2024-01-07T04:44:34;30.27;;;19.73;;
9420;SDS011;4749;51.398;5.466;2024-01-07T04:47:01;30.33;;;19.27;;
9420;SDS011;4749;51.398;5.466;2024-01-07T04:49:28;29.20;;;18.40;;
9420;SDS011;4749;51.398;5.466;2024-01-07T04:51:56;30.67;;;18.40;;
9420;SDS011;4749;51.398;5.466;2024-01-07T04:54:23;30.93;;;18.93;;
9420;SDS011;4749;51.398;5.466;2024-01-07T04:56:50;27.17;;;18.17;;
9420;SDS011;4749;51.398;5.466;2024-01-07T04:59:17;29.80;;;19.10;;
9420;SDS011;4749;51.398;5.466;2024-01-07T05:01:44;32.83;;;19.33;;
9420;SDS011;4749;51.398;5.466;2024-01-07T05:04:11;32.20;;;20.40;;
9420;SDS011;4749;51.398;5.466;2024-01-07T05:06:39;29.07;;;18.80;;
9420;SDS011;4749;51.398;5.466;2024-01-07T05:09:07;28.90;;;18.70;;
9420;SDS011;4749;51.398;5.466;2024-01-07T05:11:38;28.40;;;17.43;;
9420;SDS011;4749;51.398;5.466;2024-01-07T05:14:06;28.07;;;17.80;;
9420;SDS011;4749;51.398;5.466;2024-01-07T05:16:33;24.50;;;16.27;;
9420;SDS011;4749;51.398;5.466;2024-01-07T05:19:00;26.93;;;18.17;;
9420;SDS011;4749;51.398;5.466;2024-01-07T05:21:28;29.13;;;18.83;;
9420;SDS011;4749;51.398;5.466;2024-01-07T05:23:55;27.97;;;18.07;;
9420;SDS011;4749;51.398;5.466;2024-01-07T05:26:22;28.03;;;18.63;;
9420;SDS011;4749;51.398;5.466;2024-01-07T05:28:49;27.87;;;18.87;;
9420;SDS011;4749;51.398;5.466;2024-01-07T05:31:16;29.33;;;18.83;;
9420;SDS011;4749;51.398;5.466;2024-01-07T05:33:45;25.43;;;16.97;;
9420;SDS011;4749;51.398;5.466;2024-01-07T05:36:12;22.83;;;16.27;;
9420;SDS011;4749;51.398;5.466;2024-01-07T05:38:43;21.33;;;15.60;;
9420;SDS011;4749;51.398;5.466;2024-01-07T05:41:10;20.80;;;14.43;;
9420;SDS011;4749;51.398;5.466;2024-01-07T05:43:37;17.93;;;13.67;;
9420;SDS011;4749;51.398;5.466;2024-01-07T05:46:04;20.70;;;14.70;;
9420;SDS011;4749;51.398;5.466;2024-01-07T05:48:41;18.37;;;14.00;;
9420;SDS011;4749;51.398;5.466;2024-01-07T05:51:12;19.30;;;13.27;;
9420;SDS011;4749;51.398;5.466;2024-01-07T05:53:41;19.13;;;14.77;;
9420;SDS011;4749;51.398;5.466;2024-01-07T05:56:10;18.30;;;13.63;;
9420;SDS011;4749;51.398;5.466;2024-01-07T05:58:37;18.70;;;14.50;;
9420;SDS011;4749;51.398;5.466;2024-01-07T06:01:05;17.47;;;13.67;;
9420;SDS011;4749;51.398;5.466;2024-01-07T06:03:34;19.63;;;13.67;;
9420;SDS011;4749;51.398;5.466;2024-01-07T06:06:02;18.83;;;14.40;;
9420;SDS011;4749;51.398;5.466;2024-01-07T06:08:29;17.07;;;13.93;;
9420;SDS011;4749;51.398;5.466;2024-01-07T06:10:56;19.33;;;14.00;;
9420;SDS011;4749;51.398;5.466;2024-01-07T06:13:24;19.63;;;14.83;;
9420;SDS011;4749;51.398;5.466;2024-01-07T06:15:51;19.20;;;14.10;;
9420;SDS011;4749;51.398;5.466;2024-01-07T06:18:19;19.10;;;13.93;;
9420;SDS011;4749;51.398;5.466;2024-01-07T06:20:46;18.30;;;13.70;;
9420;SDS011;4749;51.398;5.466;2024-01-07T06:23:14;16.67;;;13.80;;
9420;SDS011;4749;51.398;5.466;2024-01-07T06:25:41;19.83;;;15.57;;
9420;SDS011;4749;51.398;5.466;2024-01-07T06:28:08;18.67;;;14.47;;
9420;SDS011;4749;51.398;5.466;2024-01-07T06:30:37;17.77;;;13.60;;
9420;SDS011;4749;51.398;5.466;2024-01-07T06:33:04;19.13;;;14.13;;
9420;SDS011;4749;51.398;5.466;2024-01-07T06:35:32;19.60;;;14.80;;
9420;SDS011;4749;51.398;5.466;2024-01-07T06:37:59;18.67;;;14.40;;
9420;SDS011;4749;51.398;5.466;2024-01-07T06:40:26;18.90;;;14.13;;
9420;SDS011;4749;51.398;5.466;2024-01-07T06:42:53;18.97;;;14.60;;
9420;SDS011;4749;51.398;5.466;2024-01-07T06:45:20;20.57;;;15.07;;
9420;SDS011;4749;51.398;5.466;2024-01-07T06:47:48;18.97;;;14.90;;
9420;SDS011;4749;51.398;5.466;2024-01-07T06:50:16;18.70;;;14.97;;
9420;SDS011;4749;51.398;5.466;2024-01-07T06:52:44;20.27;;;14.03;;
9420;SDS011;4749;51.398;5.466;2024-01-07T06:55:11;18.80;;;13.57;;
9420;SDS011;4749;51.398;5.466;2024-01-07T06:57:38;18.37;;;14.40;;
9420;SDS011;4749;51.398;5.466;2024-01-07T07:00:05;19.47;;;14.93;;
9420;SDS011;4749;51.398;5.466;2024-01-07T07:02:34;17.37;;;14.83;;
9420;SDS011;4749;51.398;5.466;2024-01-07T07:05:01;18.10;;;13.20;;
9420;SDS011;4749;51.398;5.466;2024-01-07T07:07:29;19.23;;;14.83;;
9420;SDS011;4749;51.398;5.466;2024-01-07T07:09:56;18.83;;;14.20;;
9420;SDS011;4749;51.398;5.466;2024-01-07T07:12:23;19.27;;;15.23;;
9420;SDS011;4749;51.398;5.466;2024-01-07T07:14:50;21.60;;;16.10;;
9420;SDS011;4749;51.398;5.466;2024-01-07T07:17:17;21.07;;;16.17;;
9420;SDS011;4749;51.398;5.466;2024-01-07T07:19:44;20.73;;;15.83;;
9420;SDS011;4749;51.398;5.466;2024-01-07T07:22:11;20.23;;;15.63;;
9420;SDS011;4749;51.398;5.466;2024-01-07T07:24:40;19.47;;;14.90;;
9420;SDS011;4749;51.398;5.466;2024-01-07T07:27:08;20.93;;;15.13;;
9420;SDS011;4749;51.398;5.466;2024-01-07T07:29:35;21.47;;;14.90;;
9420;SDS011;4749;51.398;5.466;2024-01-07T07:32:02;20.63;;;15.27;;
9420;SDS011;4749;51.398;5.466;2024-01-07T07:34:30;19.17;;;15.43;;
9420;SDS011;4749;51.398;5.466;2024-01-07T07:36:57;21.73;;;15.87;;
9420;SDS011;4749;51.398;5.466;2024-01-07T07:39:25;19.73;;;15.20;;
9420;SDS011;4749;51.398;5.466;2024-01-07T07:41:52;19.87;;;15.37;;
9420;SDS011;4749;51.398;5.466;2024-01-07T07:44:20;20.57;;;15.00;;
9420;SDS011;4749;51.398;5.466;2024-01-07T07:46:47;19.47;;;14.13;;
9420;SDS011;4749;51.398;5.466;2024-01-07T07:49:14;19.87;;;14.90;;
9420;SDS011;4749;51.398;5.466;2024-01-07T07:51:43;19.60;;;15.13;;
9420;SDS011;4749;51.398;5.466;2024-01-07T07:54:10;19.70;;;14.83;;
9420;SDS011;4749;51.398;5.466;2024-01-07T07:56:37;22.20;;;15.93;;
9420;SDS011;4749;51.398;5.466;2024-01-07T07:59:05;21.10;;;15.93;;
9420;SDS011;4749;51.398;5.466;2024-01-07T08:01:32;20.70;;;14.90;;
9420;SDS011;4749;51.398;5.466;2024-01-07T08:03:59;19.93;;;14.87;;
9420;SDS011;4749;51.398;5.466;2024-01-07T08:06:26;21.23;;;15.23;;
9420;SDS011;4749;51.398;5.466;2024-01-07T08:08:53;19.50;;;14.63;;
9420;SDS011;4749;51.398;5.466;2024-01-07T08:11:21;20.07;;;14.67;;
9420;SDS011;4749;51.398;5.466;2024-01-07T08:13:48;20.33;;;15.93;;
9420;SDS011;4749;51.398;5.466;2024-01-07T08:16:15;21.40;;;15.40;;
9420;SDS011;4749;51.398;5.466;2024-01-07T08:18:42;20.17;;;14.43;;
9420;SDS011;4749;51.398;5.466;2024-01-07T08:21:10;20.50;;;15.50;;
9420;SDS011;4749;51.398;5.466;2024-01-07T08:23:37;20.10;;;14.90;;
9420;SDS011;4749;51.398;5.466;2024-01-07T08:26:04;17.80;;;14.30;;
9420;SDS011;4749;51.398;5.466;2024-01-07T08:28:31;21.47;;;15.30;;
9420;SDS011;4749;51.398;5.466;2024-01-07T08:30:58;20.00;;;14.63;;
9420;SDS011;4749;51.398;5.466;2024-01-07T08:33:26;19.97;;;14.50;;
9420;SDS011;4749;51.398;5.466;2024-01-07T08:35:55;20.33;;;14.60;;
9420;SDS011;4749;51.398;5.466;2024-01-07T08:38:22;21.50;;;15.57;;
9420;SDS011;4749;51.398;5.466;2024-01-07T08:40:49;20.00;;;14.63;;
9420;SDS011;4749;51.398;5.466;2024-01-07T08:43:16;20.77;;;14.80;;
9420;SDS011;4749;51.398;5.466;2024-01-07T08:45:44;21.00;;;15.20;;
9420;SDS011;4749;51.398;5.466;2024-01-07T08:48:11;23.03;;;14.90;;
9420;SDS011;4749;51.398;5.466;2024-01-07T08:50:38;21.93;;;15.73;;
9420;SDS011;4749;51.398;5.466;2024-01-07T08:53:05;22.27;;;15.30;;
9420;SDS011;4749;51.398;5.466;2024-01-07T08:55:32;18.53;;;13.90;;
9420;SDS011;4749;51.398;5.466;2024-01-07T08:58:00;20.30;;;15.07;;
9420;SDS011;4749;51.398;5.466;2024-01-07T09:00:27;20.93;;;15.17;;
9420;SDS011;4749;51.398;5.466;2024-01-07T09:02:58;20.10;;;14.73;;
9420;SDS011;4749;51.398;5.466;2024-01-07T09:05:25;21.83;;;15.00;;
9420;SDS011;4749;51.398;5.466;2024-01-07T09:07:53;24.17;;;15.63;;
9420;SDS011;4749;51.398;5.466;2024-01-07T09:10:20;22.13;;;14.90;;
9420;SDS011;4749;51.398;5.466;2024-01-07T09:12:48;20.43;;;15.10;;
9420;SDS011;4749;51.398;5.466;2024-01-07T09:15:17;23.23;;;15.77;;
9420;SDS011;4749;51.398;5.466;2024-01-07T09:17:46;22.23;;;15.57;;
9420;SDS011;4749;51.398;5.466;2024-01-07T09:20:14;23.30;;;15.50;;
9420;SDS011;4749;51.398;5.466;2024-01-07T09:22:41;21.93;;;15.10;;
9420;SDS011;4749;51.398;5.466;2024-01-07T09:25:10;19.83;;;14.97;;
9420;SDS011;4749;51.398;5.466;2024-01-07T09:27:37;20.63;;;15.33;;
9420;SDS011;4749;51.398;5.466;2024-01-07T09:30:05;18.90;;;14.77;;
9420;SDS011;4749;51.398;5.466;2024-01-07T09:32:33;18.47;;;14.03;;
9420;SDS011;4749;51.398;5.466;2024-01-07T09:35:03;21.40;;;14.47;;
9420;SDS011;4749;51.398;5.466;2024-01-07T09:37:32;19.27;;;13.87;;
9420;SDS011;4749;51.398;5.466;2024-01-07T09:40:00;19.83;;;13.90;;
9420;SDS011;4749;51.398;5.466;2024-01-07T09:42:27;18.07;;;13.33;;
9420;SDS011;4749;51.398;5.466;2024-01-07T09:44:54;16.73;;;12.80;;
9420;SDS011;4749;51.398;5.466;2024-01-07T09:47:22;17.03;;;13.03;;
9420;SDS011;4749;51.398;5.466;2024-01-07T09:49:50;16.07;;;12.50;;
9420;SDS011;4749;51.398;5.466;2024-01-07T09:52:18;15.57;;;12.00;;
9420;SDS011;4749;51.398;5.466;2024-01-07T09:54:49;14.90;;;11.73;;
9420;SDS011;4749;51.398;5.466;2024-01-07T09:57:23;16.10;;;12.07;;
9420;SDS011;4749;51.398;5.466;2024-01-07T09:59:51;14.10;;;10.90;;
9420;SDS011;4749;51.398;5.466;2024-01-07T10:02:19;15.77;;;11.50;;
9420;SDS011;4749;51.398;5.466;2024-01-07T10:04:49;15.77;;;11.70;;
9420;SDS011;4749;51.398;5.466;2024-01-07T10:07:17;13.40;;;10.77;;
9420;SDS011;4749;51.398;5.466;2024-01-07T10:09:44;14.13;;;10.83;;
9420;SDS011;4749;51.398;5.466;2024-01-07T10:12:12;11.90;;;10.10;;
9420;SDS011;4749;51.398;5.466;2024-01-07T10:14:39;15.77;;;11.17;;
9420;SDS011;4749;51.398;5.466;2024-01-07T10:17:16;13.53;;;11.00;;
9420;SDS011;4749;51.398;5.466;2024-01-07T10:19:44;11.63;;;9.90;;
9420;SDS011;4749;51.398;5.466;2024-01-07T10:22:15;12.77;;;9.63;;
9420;SDS011;4749;51.398;5.466;2024-01-07T10:24:42;11.30;;;9.60;;
9420;SDS011;4749;51.398;5.466;2024-01-07T10:27:10;12.10;;;10.20;;
9420;SDS011;4749;51.398;5.466;2024-01-07T10:29:37;14.40;;;10.77;;
9420;SDS011;4749;51.398;5.466;2024-01-07T10:32:04;11.97;;;9.40;;
9420;SDS011;4749;51.398;5.466;2024-01-07T10:34:33;13.37;;;11.00;;
9420;SDS011;4749;51.398;5.466;2024-01-07T10:37:03;15.00;;;11.10;;
9420;SDS011;4749;51.398;5.466;2024-01-07T10:39:32;12.37;;;10.57;;
9420;SDS011;4749;51.398;5.466;2024-01-07T10:41:59;13.60;;;11.03;;
9420;SDS011;4749;51.398;5.466;2024-01-07T10:44:28;14.37;;;11.10;;
9420;SDS011;4749;51.398;5.466;2024-01-07T10:46:58;13.03;;;10.93;;
9420;SDS011;4749;51.398;5.466;2024-01-07T10:49:27;12.50;;;10.53;;
9420;SDS011;4749;51.398;5.466;2024-01-07T10:54:31;13.30;;;10.83;;
9420;SDS011;4749;51.398;5.466;2024-01-07T10:57:21;12.93;;;10.90;;
9420;SDS011;4749;51.398;5.466;2024-01-07T10:59:57;15.33;;;11.87;;
9420;SDS011;4749;51.398;5.466;2024-01-07T11:02:26;11.53;;;10.33;;
9420;SDS011;4749;51.398;5.466;2024-01-07T11:08:03;12.37;;;10.90;;
9420;SDS011;4749;51.398;5.466;2024-01-07T11:10:45;12.90;;;10.90;;
9420;SDS011;4749;51.398;5.466;2024-01-07T11:13:35;12.70;;;10.23;;
9420;SDS011;4749;51.398;5.466;2024-01-07T11:16:08;11.97;;;10.63;;
9420;SDS011;4749;51.398;5.466;2024-01-07T11:18:39;11.17;;;9.77;;
9420;SDS011;4749;51.398;5.466;2024-01-07T11:21:20;11.13;;;9.27;;
9420;SDS011;4749;51.398;5.466;2024-01-07T11:23:48;11.83;;;9.80;;
9420;SDS011;4749;51.398;5.466;2024-01-07T11:26:15;11.57;;;8.80;;
9420;SDS011;4749;51.398;5.466;2024-01-07T11:31:19;11.00;;;8.93;;
9420;SDS011;4749;51.398;5.466;2024-01-07T11:33:49;11.37;;;9.40;;
9420;SDS011;4749;51.398;5.466;2024-01-07T11:36:18;11.17;;;9.10;;
9420;SDS011;4749;51.398;5.466;2024-01-07T11:38:47;10.33;;;8.00;;
9420;SDS011;4749;51.398;5.466;2024-01-07T11:41:20;10.97;;;8.43;;
9420;SDS011;4749;51.398;5.466;2024-01-07T11:43:54;11.63;;;8.90;;
9420;SDS011;4749;51.398;5.466;2024-01-07T11:46:31;11.17;;;8.57;;
9420;SDS011;4749;51.398;5.466;2024-01-07T11:48:59;13.47;;;9.40;;
9420;SDS011;4749;51.398;5.466;2024-01-07T11:51:28;12.63;;;9.70;;
9420;SDS011;4749;51.398;5.466;2024-01-07T11:53:58;11.33;;;9.10;;
9420;SDS011;4749;51.398;5.466;2024-01-07T11:56:26;10.67;;;9.30;;
9420;SDS011;4749;51.398;5.466;2024-01-07T11:58:57;13.17;;;9.00;;
9420;SDS011;4749;51.398;5.466;2024-01-07T12:01:24;11.50;;;9.23;;
9420;SDS011;4749;51.398;5.466;2024-01-07T12:03:53;12.40;;;10.07;;
9420;SDS011;4749;51.398;5.466;2024-01-07T12:06:21;12.33;;;9.63;;
9420;SDS011;4749;51.398;5.466;2024-01-07T12:08:48;12.87;;;10.30;;
9420;SDS011;4749;51.398;5.466;2024-01-07T12:11:15;10.97;;;9.27;;
9420;SDS011;4749;51.398;5.466;2024-01-07T12:13:43;14.77;;;10.50;;
9420;SDS011;4749;51.398;5.466;2024-01-07T12:16:11;14.80;;;11.10;;
9420;SDS011;4749;51.398;5.466;2024-01-07T12:18:38;13.40;;;10.10;;
9420;SDS011;4749;51.398;5.466;2024-01-07T12:21:06;13.60;;;10.33;;
9420;SDS011;4749;51.398;5.466;2024-01-07T12:23:37;15.43;;;10.80;;
9420;SDS011;4749;51.398;5.466;2024-01-07T12:26:09;14.10;;;10.50;;
9420;SDS011;4749;51.398;5.466;2024-01-07T12:28:38;13.03;;;10.03;;
9420;SDS011;4749;51.398;5.466;2024-01-07T12:31:06;11.97;;;9.43;;
9420;SDS011;4749;51.398;5.466;2024-01-07T12:33:36;13.57;;;9.80;;
9420;SDS011;4749;51.398;5.466;2024-01-07T12:36:05;13.17;;;9.97;;
9420;SDS011;4749;51.398;5.466;2024-01-07T12:38:36;12.63;;;8.53;;
9420;SDS011;4749;51.398;5.466;2024-01-07T12:41:04;10.60;;;8.20;;
9420;SDS011;4749;51.398;5.466;2024-01-07T12:43:31;10.87;;;8.67;;
9420;SDS011;4749;51.398;5.466;2024-01-07T12:45:59;8.57;;;7.67;;
9420;SDS011;4749;51.398;5.466;2024-01-07T12:48:32;10.37;;;7.93;;
9420;SDS011;4749;51.398;5.466;2024-01-07T12:51:00;9.57;;;7.97;;
9420;SDS011;4749;51.398;5.466;2024-01-07T12:53:28;9.73;;;7.60;;
9420;SDS011;4749;51.398;5.466;2024-01-07T12:55:55;10.57;;;8.40;;
9420;SDS011;4749;51.398;5.466;2024-01-07T12:58:22;9.00;;;7.50;;
9420;SDS011;4749;51.398;5.466;2024-01-07T13:00:49;9.23;;;7.80;;
9420;SDS011;4749;51.398;5.466;2024-01-07T13:03:17;8.10;;;7.13;;
9420;SDS011;4749;51.398;5.466;2024-01-07T13:05:44;9.20;;;6.87;;
9420;SDS011;4749;51.398;5.466;2024-01-07T13:08:15;9.03;;;7.37;;
9420;SDS011;4749;51.398;5.466;2024-01-07T13:10:45;65.57;;;11.47;;
9420;SDS011;4749;51.398;5.466;2024-01-07T13:13:12;10.40;;;6.83;;
9420;SDS011;4749;51.398;5.466;2024-01-07T13:15:41;8.47;;;7.37;;
9420;SDS011;4749;51.398;5.466;2024-01-07T13:18:09;8.07;;;6.43;;
9420;SDS011;4749;51.398;5.466;2024-01-07T13:20:39;9.43;;;6.77;;
9420;SDS011;4749;51.398;5.466;2024-01-07T13:23:06;8.30;;;6.90;;
9420;SDS011;4749;51.398;5.466;2024-01-07T13:25:33;10.20;;;7.70;;
9420;SDS011;4749;51.398;5.466;2024-01-07T13:28:00;11.77;;;9.07;;
9420;SDS011;4749;51.398;5.466;2024-01-07T13:30:28;9.03;;;7.53;;
9420;SDS011;4749;51.398;5.466;2024-01-07T13:32:55;9.63;;;6.87;;
9420;SDS011;4749;51.398;5.466;2024-01-07T13:35:28;6.97;;;5.87;;
9420;SDS011;4749;51.398;5.466;2024-01-07T13:37:55;8.17;;;6.20;;
9420;SDS011;4749;51.398;5.466;2024-01-07T13:40:23;6.80;;;5.53;;
9420;SDS011;4749;51.398;5.466;2024-01-07T13:42:50;9.70;;;6.40;;
9420;SDS011;4749;51.398;5.466;2024-01-07T13:45:19;7.07;;;5.87;;
9420;SDS011;4749;51.398;5.466;2024-01-07T13:47:48;6.37;;;5.57;;
9420;SDS011;4749;51.398;5.466;2024-01-07T13:50:16;7.50;;;5.60;;
9420;SDS011;4749;51.398;5.466;2024-01-07T13:52:43;7.20;;;5.73;;
9420;SDS011;4749;51.398;5.466;2024-01-07T13:55:11;5.80;;;5.00;;
9420;SDS011;4749;51.398;5.466;2024-01-07T13:57:40;5.87;;;4.67;;
9420;SDS011;4749;51.398;5.466;2024-01-07T14:00:08;7.47;;;4.77;;
9420;SDS011;4749;51.398;5.466;2024-01-07T14:02:37;5.40;;;4.43;;
9420;SDS011;4749;51.398;5.466;2024-01-07T14:05:06;5.40;;;4.17;;
9420;SDS011;4749;51.398;5.466;2024-01-07T14:07:35;5.90;;;4.20;;
9420;SDS011;4749;51.398;5.466;2024-01-07T14:10:04;6.17;;;3.93;;
9420;SDS011;4749;51.398;5.466;2024-01-07T14:12:32;3.87;;;3.47;;
9420;SDS011;4749;51.398;5.466;2024-01-07T14:15:00;4.10;;;3.27;;
9420;SDS011;4749;51.398;5.466;2024-01-07T14:17:28;3.97;;;3.20;;
9420;SDS011;4749;51.398;5.466;2024-01-07T14:19:56;4.07;;;2.93;;
9420;SDS011;4749;51.398;5.466;2024-01-07T14:22:23;4.67;;;3.30;;
9420;SDS011;4749;51.398;5.466;2024-01-07T14:24:51;5.10;;;3.13;;
9420;SDS011;4749;51.398;5.466;2024-01-07T14:27:18;4.50;;;3.20;;
9420;SDS011;4749;51.398;5.466;2024-01-07T14:29:45;6.07;;;3.50;;
9420;SDS011;4749;51.398;5.466;2024-01-07T14:32:12;5.33;;;3.10;;
9420;SDS011;4749;51.398;5.466;2024-01-07T14:34:40;6.23;;;3.03;;
9420;SDS011;4749;51.398;5.466;2024-01-07T14:37:08;4.83;;;2.93;;
9420;SDS011;4749;51.398;5.466;2024-01-07T14:39:37;3.17;;;2.67;;
9420;SDS011;4749;51.398;5.466;2024-01-07T14:42:04;3.77;;;2.70;;
9420;SDS011;4749;51.398;5.466;2024-01-07T14:44:32;4.23;;;2.87;;
9420;SDS011;4749;51.398;5.466;2024-01-07T14:47:13;4.03;;;2.67;;
9420;SDS011;4749;51.398;5.466;2024-01-07T14:49:45;3.67;;;2.97;;
9420;SDS011;4749;51.398;5.466;2024-01-07T14:52:12;2.63;;;2.37;;
9420;SDS011;4749;51.398;5.466;2024-01-07T14:54:40;4.73;;;2.80;;
9420;SDS011;4749;51.398;5.466;2024-01-07T14:57:08;3.90;;;2.90;;
9420;SDS011;4749;51.398;5.466;2024-01-07T14:59:36;3.40;;;2.47;;
9420;SDS011;4749;51.398;5.466;2024-01-07T15:02:03;3.30;;;2.50;;
9420;SDS011;4749;51.398;5.466;2024-01-07T15:04:31;4.47;;;3.07;;
9420;SDS011;4749;51.398;5.466;2024-01-07T15:06:59;5.60;;;3.27;;